Time;durP1;ratioP1;P1;durP2;ratioP2;P2;SDS_P1;SDS_P2;PMS_P1;PMS_P2;Temp;Humidity;BMP_temperature;BMP_pressure;BME280_temperature;BME280_humidity;BME280_pressure;Samples;Min_cycle;Max_cycle;Signal;HPM_P1;HPM_P2
2023/01/15 00:01:26;;;;;;;0.10;0.10;;;;;;;;;;5034618;28;20084;-71
2023/01/15 00:03:52;;;;;;;0.10;0.10;;;;;;;;;;5028646;28;21062;-71
2023/01/15 00:06:17;;;;;;;0.10;0.10;;;;;;;;;;5035069;28;20029;-72
2023/01/15 00:08:43;;;;;;;0.10;0.10;;;;;;;;;;5036856;28;20036;-72
2023/01/15 00:11:08;;;;;;;0.10;0.10;;;;;;;;;;5038504;28;20032;-70
2023/01/15 00:13:34;;;;;;;0.10;0.10;;;;;;;;;;5034923;28;20028;-71
2023/01/15 00:16:06;;;;;;;0.10;0.10;;;;;;;;;;5030291;28;20470;-70
2023/01/15 00:18:31;;;;;;;0.10;0.10;;;;;;;;;;5041457;28;20029;-71
2023/01/15 00:21:05;;;;;;;0.10;0.10;;;;;;;;;;5036878;28;20048;-71
2023/01/15 00:27:37;;;;;;;;;;;;;;;;;;5032576;28;20048;-71
2023/01/15 00:28:59;;;;;;;0.20;0.20;;;;;;;;;;5039679;28;20560;-71
2023/01/15 00:31:25;;;;;;;0.20;0.20;;;;;;;;;;5044292;28;20059;-72
2023/01/15 00:33:50;;;;;;;0.20;0.20;;;;;;;;;;5034966;28;20021;-72
2023/01/15 00:36:15;;;;;;;0.10;0.10;;;;;;;;;;5035894;28;21060;-71
2023/01/15 00:38:40;;;;;;;0.10;0.10;;;;;;;;;;5029697;28;20286;-74
2023/01/15 00:41:06;;;;;;;0.20;0.20;;;;;;;;;;5036060;28;20029;-71
2023/01/15 00:43:31;;;;;;;0.15;0.15;;;;;;;;;;5032818;28;20327;-70
2023/01/15 00:45:56;;;;;;;0.10;0.10;;;;;;;;;;5038304;28;20455;-72
2023/01/15 00:48:21;;;;;;;0.20;0.20;;;;;;;;;;5034778;28;20920;-73
2023/01/15 00:50:46;;;;;;;0.10;0.10;;;;;;;;;;5027331;28;20266;-71
2023/01/15 00:53:11;;;;;;;0.10;0.10;;;;;;;;;;5031414;28;20814;-73
2023/01/15 00:55:37;;;;;;;0.10;0.10;;;;;;;;;;5033089;28;20305;-72
2023/01/15 00:58:02;;;;;;;0.10;0.10;;;;;;;;;;5026201;28;20025;-74
2023/01/15 01:00:27;;;;;;;0.10;0.10;;;;;;;;;;5027497;28;20025;-71
2023/01/15 01:02:52;;;;;;;0.20;0.20;;;;;;;;;;5026890;28;21732;-73
2023/01/15 01:05:17;;;;;;;0.10;0.10;;;;;;;;;;5028383;28;20021;-72
2023/01/15 01:07:42;;;;;;;0.10;0.10;;;;;;;;;;5037630;28;20350;-73
2023/01/15 01:10:08;;;;;;;0.10;0.10;;;;;;;;;;5031614;28;20269;-73
2023/01/15 01:12:33;;;;;;;0.10;0.10;;;;;;;;;;5022670;28;21056;-70
2023/01/15 01:14:58;;;;;;;0.20;0.20;;;;;;;;;;5026412;28;20120;-71
2023/01/15 01:17:23;;;;;;;0.20;0.20;;;;;;;;;;5026854;28;20300;-71
2023/01/15 01:19:49;;;;;;;0.20;0.20;;;;;;;;;;5023655;28;20313;-71
2023/01/15 01:22:14;;;;;;;0.20;0.20;;;;;;;;;;5031296;28;20028;-71
2023/01/15 01:24:39;;;;;;;0.20;0.20;;;;;;;;;;5031258;28;20842;-70
2023/01/15 01:27:04;;;;;;;0.20;0.20;;;;;;;;;;5024590;28;20040;-71
2023/01/15 01:29:29;;;;;;;0.20;0.20;;;;;;;;;;5031488;28;20495;-71
2023/01/15 01:31:55;;;;;;;0.20;0.20;;;;;;;;;;5028764;28;20407;-71
2023/01/15 01:34:20;;;;;;;0.10;0.10;;;;;;;;;;5028380;28;20072;-75
2023/01/15 01:36:45;;;;;;;0.20;0.20;;;;;;;;;;5031529;28;20549;-71
2023/01/15 01:39:14;;;;;;;0.20;0.20;;;;;;;;;;5031265;28;20525;-72
2023/01/15 01:41:40;;;;;;;0.10;0.10;;;;;;;;;;5029471;28;20054;-71
2023/01/15 01:44:24;;;;;;;0.20;0.20;;;;;;;;;;5029457;28;20461;-71
2023/01/15 01:46:49;;;;;;;0.10;0.10;;;;;;;;;;5028717;28;20493;-71
2023/01/15 01:49:14;;;;;;;0.20;0.20;;;;;;;;;;5031542;28;20017;-72
2023/01/15 01:51:42;;;;;;;0.10;0.10;;;;;;;;;;5029076;28;20024;-71
2023/01/15 01:54:07;;;;;;;0.10;0.10;;;;;;;;;;5026402;28;20344;-71
2023/01/15 01:56:34;;;;;;;0.20;0.20;;;;;;;;;;5029687;28;20368;-72
2023/01/15 01:58:59;;;;;;;0.20;0.20;;;;;;;;;;5027008;28;20028;-71
2023/01/15 02:01:25;;;;;;;0.20;0.20;;;;;;;;;;5027936;28;20120;-72
2023/01/15 02:03:51;;;;;;;0.10;0.10;;;;;;;;;;5029283;28;20429;-72
2023/01/15 02:06:16;;;;;;;0.20;0.20;;;;;;;;;;5031967;28;20052;-71
2023/01/15 02:08:41;;;;;;;0.10;0.10;;;;;;;;;;5036410;28;20371;-71
2023/01/15 02:11:11;;;;;;;0.10;0.10;;;;;;;;;;5030729;28;20032;-72
2023/01/15 02:13:38;;;;;;;0.10;0.10;;;;;;;;;;5026369;28;20040;-72
2023/01/15 02:16:09;;;;;;;0.10;0.10;;;;;;;;;;5028334;28;20059;-72
2023/01/15 02:18:39;;;;;;;0.10;0.10;;;;;;;;;;5030766;28;20035;-71
2023/01/15 02:21:11;;;;;;;0.20;0.20;;;;;;;;;;5031055;28;20059;-72
2023/01/15 02:23:58;;;;;;;0.17;0.17;;;;;;;;;;5030693;28;20032;-71
2023/01/15 02:26:41;;;;;;;0.20;0.20;;;;;;;;;;5033393;28;20076;-71
2023/01/15 02:29:09;;;;;;;0.20;0.20;;;;;;;;;;5030295;28;20947;-71
2023/01/15 02:31:39;;;;;;;0.10;0.10;;;;;;;;;;5032151;28;20435;-72
2023/01/15 02:34:07;;;;;;;0.10;0.10;;;;;;;;;;5030258;28;20022;-72
2023/01/15 02:36:34;;;;;;;0.10;0.10;;;;;;;;;;5035081;28;20012;-73
2023/01/15 02:39:02;;;;;;;0.20;0.20;;;;;;;;;;5031169;28;20032;-72
2023/01/15 02:41:30;;;;;;;0.20;0.20;;;;;;;;;;5030525;28;20024;-72
2023/01/15 02:43:56;;;;;;;0.10;0.10;;;;;;;;;;5027396;28;20208;-72
2023/01/15 02:46:25;;;;;;;0.20;0.20;;;;;;;;;;5030298;28;20029;-72
2023/01/15 02:48:52;;;;;;;0.10;0.10;;;;;;;;;;5029881;28;20055;-72
2023/01/15 02:51:22;;;;;;;0.10;0.10;;;;;;;;;;5031262;28;20016;-71
2023/01/15 02:53:48;;;;;;;0.10;0.10;;;;;;;;;;5030238;28;20625;-72
2023/01/15 02:56:15;;;;;;;0.20;0.20;;;;;;;;;;5031680;28;20135;-72
2023/01/15 02:58:41;;;;;;;0.13;0.13;;;;;;;;;;5031309;28;20194;-72
2023/01/15 03:01:13;;;;;;;0.10;0.10;;;;;;;;;;5029279;28;21347;-73
2023/01/15 03:03:41;;;;;;;0.20;0.20;;;;;;;;;;5025524;28;20025;-71
2023/01/15 03:06:12;;;;;;;0.10;0.10;;;;;;;;;;5029547;28;20024;-72
2023/01/15 03:08:38;;;;;;;0.20;0.20;;;;;;;;;;5028160;28;20021;-72
2023/01/15 03:11:17;;;;;;;0.20;0.20;;;;;;;;;;5037925;28;20344;-72
2023/01/15 03:13:45;;;;;;;0.10;0.10;;;;;;;;;;5028125;28;20062;-73
2023/01/15 03:16:36;;;;;;;0.20;0.20;;;;;;;;;;5036580;28;20068;-71
2023/01/15 03:19:14;;;;;;;0.10;0.10;;;;;;;;;;5037993;28;20025;-72
2023/01/15 03:21:39;;;;;;;0.10;0.10;;;;;;;;;;5029825;28;20515;-72
2023/01/15 03:24:05;;;;;;;0.20;0.20;;;;;;;;;;5025431;28;20082;-72
2023/01/15 03:26:30;;;;;;;0.20;0.20;;;;;;;;;;5039504;28;20286;-74
2023/01/15 03:28:56;;;;;;;0.10;0.10;;;;;;;;;;5035567;28;20043;-73
2023/01/15 03:31:21;;;;;;;0.13;0.13;;;;;;;;;;5031565;28;20375;-72
2023/01/15 03:33:46;;;;;;;0.10;0.10;;;;;;;;;;5034987;28;20454;-72
2023/01/15 03:36:11;;;;;;;0.10;0.10;;;;;;;;;;5038560;28;20029;-71
2023/01/15 03:38:38;;;;;;;0.10;0.10;;;;;;;;;;5043124;28;20415;-72
2023/01/15 03:41:09;;;;;;;0.20;0.20;;;;;;;;;;5037104;28;20033;-72
2023/01/15 03:43:45;;;;;;;0.10;0.10;;;;;;;;;;5046222;28;20056;-73
2023/01/15 03:46:28;;;;;;;0.20;0.20;;;;;;;;;;5036660;28;20021;-73
2023/01/15 03:49:14;;;;;;;0.20;0.20;;;;;;;;;;5034488;28;20021;-73
2023/01/15 03:52:00;;;;;;;0.13;0.13;;;;;;;;;;5030248;28;20086;-72
2023/01/15 03:54:32;;;;;;;0.20;0.20;;;;;;;;;;5046597;28;20017;-72
2023/01/15 03:57:01;;;;;;;0.10;0.10;;;;;;;;;;5042215;28;20036;-72
2023/01/15 03:59:38;;;;;;;0.20;0.20;;;;;;;;;;5043492;28;20111;-73
2023/01/15 04:02:05;;;;;;;0.17;0.17;;;;;;;;;;5042922;28;20048;-72
2023/01/15 04:04:31;;;;;;;0.20;0.20;;;;;;;;;;5037995;28;20041;-72
2023/01/15 04:06:56;;;;;;;0.20;0.20;;;;;;;;;;5036995;28;20033;-72
2023/01/15 04:09:22;;;;;;;0.20;0.20;;;;;;;;;;5043859;28;20020;-72
2023/01/15 04:11:47;;;;;;;0.15;0.15;;;;;;;;;;5042474;28;20028;-72
2023/01/15 04:14:13;;;;;;;0.20;0.20;;;;;;;;;;5041768;28;20029;-72
2023/01/15 04:16:38;;;;;;;0.20;0.20;;;;;;;;;;5039102;28;20740;-72
2023/01/15 04:19:04;;;;;;;0.20;0.20;;;;;;;;;;5040876;28;20032;-72
2023/01/15 04:21:29;;;;;;;0.10;0.10;;;;;;;;;;5042645;28;20017;-72
2023/01/15 04:23:55;;;;;;;0.10;0.10;;;;;;;;;;5038169;28;20094;-72
2023/01/15 04:26:20;;;;;;;0.20;0.20;;;;;;;;;;5034700;28;20029;-73
2023/01/15 04:28:45;;;;;;;0.17;0.17;;;;;;;;;;5036002;28;20029;-72
2023/01/15 04:31:10;;;;;;;0.20;0.20;;;;;;;;;;5038098;28;20025;-72
2023/01/15 04:33:37;;;;;;;0.20;0.20;;;;;;;;;;5041549;28;20390;-72
2023/01/15 04:36:03;;;;;;;0.20;0.20;;;;;;;;;;5042015;28;20278;-72
2023/01/15 04:38:29;;;;;;;0.10;0.10;;;;;;;;;;5035444;28;20494;-72
2023/01/15 04:46:22;;;;;;;0.20;0.20;;;;;;;;;;5035547;28;20502;-72
2023/01/15 04:48:48;;;;;;;0.17;0.17;;;;;;;;;;5042303;28;20022;-72
2023/01/15 04:51:13;;;;;;;0.20;0.20;;;;;;;;;;5040696;28;20055;-72
2023/01/15 04:53:38;;;;;;;0.20;0.20;;;;;;;;;;5036669;28;20639;-72
2023/01/15 04:56:04;;;;;;;0.20;0.20;;;;;;;;;;5038680;28;20100;-72
2023/01/15 04:58:29;;;;;;;0.20;0.20;;;;;;;;;;5044973;28;20250;-72
2023/01/15 05:00:54;;;;;;;0.20;0.20;;;;;;;;;;5041362;28;20029;-72
2023/01/15 05:03:20;;;;;;;0.20;0.20;;;;;;;;;;5036765;28;20025;-72
2023/01/15 05:05:45;;;;;;;0.10;0.10;;;;;;;;;;5036033;28;20552;-72
2023/01/15 05:08:10;;;;;;;0.20;0.20;;;;;;;;;;5037863;28;20065;-72
2023/01/15 05:10:35;;;;;;;0.10;0.10;;;;;;;;;;5031546;28;20025;-72
2023/01/15 05:13:00;;;;;;;0.20;0.20;;;;;;;;;;5038090;28;20025;-76
2023/01/15 05:15:26;;;;;;;0.20;0.20;;;;;;;;;;5039357;28;20281;-71
2023/01/15 05:17:51;;;;;;;0.13;0.13;;;;;;;;;;5035940;28;20024;-72
2023/01/15 05:20:16;;;;;;;0.20;0.20;;;;;;;;;;5036715;28;20431;-72
2023/01/15 05:22:41;;;;;;;0.20;0.20;;;;;;;;;;5034184;28;20033;-71
2023/01/15 05:25:07;;;;;;;0.10;0.10;;;;;;;;;;5039775;28;20037;-71
2023/01/15 05:27:32;;;;;;;0.28;0.20;;;;;;;;;;5033078;28;20027;-71
2023/01/15 05:29:57;;;;;;;0.10;0.10;;;;;;;;;;5033125;28;20082;-73
2023/01/15 05:32:22;;;;;;;0.20;0.20;;;;;;;;;;5037347;28;20411;-71
2023/01/15 05:34:47;;;;;;;0.20;0.20;;;;;;;;;;5042427;28;20313;-72
2023/01/15 05:37:12;;;;;;;0.10;0.10;;;;;;;;;;5037502;28;20274;-72
2023/01/15 05:39:38;;;;;;;0.20;0.20;;;;;;;;;;5043911;28;20369;-73
2023/01/15 05:42:03;;;;;;;0.10;0.10;;;;;;;;;;5036934;28;20124;-71
2023/01/15 05:44:29;;;;;;;0.25;0.25;;;;;;;;;;5035346;28;20315;-74
2023/01/15 05:46:56;;;;;;;0.20;0.20;;;;;;;;;;5036687;28;20021;-72
2023/01/15 05:49:22;;;;;;;0.20;0.20;;;;;;;;;;5032073;28;20600;-72
2023/01/15 05:51:48;;;;;;;0.20;0.20;;;;;;;;;;5033522;28;20023;-72
2023/01/15 05:54:15;;;;;;;0.10;0.10;;;;;;;;;;5034553;28;20029;-73
2023/01/15 05:56:40;;;;;;;0.20;0.20;;;;;;;;;;5034322;28;20036;-72
2023/01/15 05:59:06;;;;;;;0.20;0.20;;;;;;;;;;5033337;28;20025;-72
2023/01/15 06:01:31;;;;;;;0.10;0.10;;;;;;;;;;5034510;28;20024;-73
2023/01/15 06:03:57;;;;;;;0.10;0.10;;;;;;;;;;5035822;28;20021;-72
2023/01/15 06:06:22;;;;;;;0.20;0.20;;;;;;;;;;5034294;28;20392;-73
2023/01/15 06:08:47;;;;;;;0.10;0.10;;;;;;;;;;5032733;28;20468;-72
2023/01/15 06:11:12;;;;;;;0.20;0.20;;;;;;;;;;5034948;28;20506;-73
2023/01/15 06:13:40;;;;;;;0.20;0.20;;;;;;;;;;5035203;28;20822;-72
2023/01/15 06:16:06;;;;;;;0.10;0.10;;;;;;;;;;5036042;28;20880;-72
2023/01/15 06:18:32;;;;;;;0.20;0.20;;;;;;;;;;5035159;28;20695;-72
2023/01/15 06:21:01;;;;;;;0.20;0.20;;;;;;;;;;5032121;28;20036;-72
2023/01/15 06:23:26;;;;;;;0.10;0.10;;;;;;;;;;5033153;28;20060;-72
2023/01/15 06:25:51;;;;;;;0.20;0.20;;;;;;;;;;5035235;28;20227;-72
2023/01/15 06:28:16;;;;;;;0.20;0.20;;;;;;;;;;5033810;28;20270;-72
2023/01/15 06:30:43;;;;;;;0.20;0.20;;;;;;;;;;5031475;28;20849;-72
2023/01/15 06:33:08;;;;;;;0.20;0.20;;;;;;;;;;5033601;28;20017;-72
2023/01/15 06:35:33;;;;;;;0.10;0.10;;;;;;;;;;5030666;28;20033;-72
2023/01/15 06:37:59;;;;;;;0.20;0.20;;;;;;;;;;5034798;28;20032;-74
2023/01/15 06:40:25;;;;;;;0.20;0.20;;;;;;;;;;5032134;28;20457;-72
2023/01/15 06:48:23;;;;;;;0.20;0.20;;;;;;;;;;5034792;28;20035;-72
2023/01/15 06:50:48;;;;;;;0.20;0.20;;;;;;;;;;5031382;28;20013;-72
2023/01/15 06:53:13;;;;;;;0.15;0.15;;;;;;;;;;5033211;28;20039;-72
2023/01/15 06:55:39;;;;;;;0.20;0.20;;;;;;;;;;5033505;28;20071;-72
2023/01/15 06:58:04;;;;;;;0.20;0.20;;;;;;;;;;5031855;28;20276;-73
2023/01/15 07:00:29;;;;;;;0.20;0.20;;;;;;;;;;5033341;28;20767;-72
2023/01/15 07:02:54;;;;;;;0.20;0.20;;;;;;;;;;5031087;28;20030;-72
2023/01/15 07:05:20;;;;;;;0.20;0.20;;;;;;;;;;5034922;28;20033;-73
2023/01/15 07:07:45;;;;;;;0.20;0.20;;;;;;;;;;5034209;28;20369;-72
2023/01/15 07:10:10;;;;;;;0.20;0.20;;;;;;;;;;5033346;28;20029;-72
2023/01/15 07:12:35;;;;;;;0.20;0.20;;;;;;;;;;5037523;28;20764;-72
2023/01/15 07:15:00;;;;;;;0.20;0.20;;;;;;;;;;5041543;28;20657;-72
2023/01/15 07:17:26;;;;;;;0.20;0.20;;;;;;;;;;5041203;28;20274;-73
2023/01/15 07:19:51;;;;;;;0.20;0.20;;;;;;;;;;5037078;28;20025;-72
2023/01/15 07:22:16;;;;;;;0.20;0.20;;;;;;;;;;5037902;28;20384;-74
2023/01/15 07:24:41;;;;;;;0.20;0.20;;;;;;;;;;5037324;28;20992;-76
2023/01/15 07:27:06;;;;;;;0.13;0.13;;;;;;;;;;5035856;28;20071;-73
2023/01/15 07:29:32;;;;;;;0.20;0.20;;;;;;;;;;5034079;28;20021;-73
2023/01/15 07:31:57;;;;;;;0.20;0.20;;;;;;;;;;5034816;28;20459;-73
2023/01/15 07:34:22;;;;;;;0.17;0.17;;;;;;;;;;5037719;28;20442;-72
2023/01/15 07:36:47;;;;;;;0.20;0.20;;;;;;;;;;5037898;28;20021;-73
2023/01/15 07:39:13;;;;;;;0.20;0.20;;;;;;;;;;5035602;28;20476;-73
2023/01/15 07:50:00;;;;;;;0.20;0.20;;;;;;;;;;5033298;28;20196;-72
2023/01/15 07:52:25;;;;;;;0.20;0.20;;;;;;;;;;5035958;28;20017;-74
2023/01/15 07:54:50;;;;;;;0.20;0.20;;;;;;;;;;5038112;28;20029;-74
2023/01/15 07:57:17;;;;;;;0.20;0.20;;;;;;;;;;5045659;28;20334;-73
2023/01/15 07:59:43;;;;;;;0.20;0.20;;;;;;;;;;5041552;28;20410;-73
2023/01/15 08:02:08;;;;;;;0.20;0.20;;;;;;;;;;5054145;28;20486;-73
2023/01/15 08:04:33;;;;;;;0.20;0.20;;;;;;;;;;5032210;28;20056;-72
2023/01/15 08:07:00;;;;;;;0.20;0.20;;;;;;;;;;5043598;28;20032;-73
2023/01/15 08:09:25;;;;;;;0.20;0.20;;;;;;;;;;5049343;28;20016;-73
2023/01/15 08:17:18;;;;;;;0.20;0.20;;;;;;;;;;5033155;28;20968;-72
2023/01/15 08:19:44;;;;;;;0.20;0.20;;;;;;;;;;5040368;28;20036;-73
2023/01/15 08:22:09;;;;;;;0.13;0.13;;;;;;;;;;5040826;28;20522;-73
2023/01/15 08:24:34;;;;;;;0.20;0.20;;;;;;;;;;5041601;28;20311;-73
2023/01/15 08:26:59;;;;;;;0.20;0.20;;;;;;;;;;5048702;28;20213;-76
2023/01/15 08:29:25;;;;;;;0.15;0.15;;;;;;;;;;5036081;28;20380;-72
2023/01/15 08:31:50;;;;;;;0.20;0.20;;;;;;;;;;5044679;28;20089;-73
2023/01/15 08:34:15;;;;;;;0.20;0.20;;;;;;;;;;5034158;28;20029;-72
2023/01/15 08:36:40;;;;;;;0.20;0.20;;;;;;;;;;5035562;28;20029;-77
2023/01/15 08:39:05;;;;;;;0.20;0.20;;;;;;;;;;5027401;28;20766;-72
2023/01/15 08:41:31;;;;;;;0.20;0.20;;;;;;;;;;5034120;28;20328;-75
2023/01/15 08:43:56;;;;;;;0.20;0.20;;;;;;;;;;5031776;28;20321;-74
2023/01/15 08:46:21;;;;;;;0.20;0.20;;;;;;;;;;5030361;28;21451;-72
2023/01/15 08:48:47;;;;;;;0.10;0.10;;;;;;;;;;5034485;28;20029;-74
2023/01/15 08:51:12;;;;;;;0.20;0.20;;;;;;;;;;5035978;28;20715;-73
2023/01/15 08:53:38;;;;;;;0.20;0.20;;;;;;;;;;5029132;28;20021;-74
2023/01/15 08:56:03;;;;;;;0.20;0.20;;;;;;;;;;5031611;28;20813;-75
2023/01/15 08:58:29;;;;;;;0.20;0.20;;;;;;;;;;5031296;28;20199;-76
2023/01/15 09:00:55;;;;;;;0.20;0.20;;;;;;;;;;5030020;28;20456;-72
2023/01/15 09:03:20;;;;;;;0.20;0.20;;;;;;;;;;5029607;28;20028;-73
2023/01/15 09:05:45;;;;;;;0.20;0.20;;;;;;;;;;5029052;28;20024;-72
2023/01/15 09:08:10;;;;;;;0.20;0.20;;;;;;;;;;5031218;28;20448;-74
2023/01/15 09:10:35;;;;;;;0.20;0.20;;;;;;;;;;5031791;28;20345;-72
2023/01/15 09:13:01;;;;;;;0.20;0.20;;;;;;;;;;5034085;28;20332;-77
2023/01/15 09:15:27;;;;;;;0.30;0.30;;;;;;;;;;5031844;28;20550;-78
2023/01/15 09:17:52;;;;;;;0.20;0.20;;;;;;;;;;5035040;28;20039;-73
2023/01/15 09:20:17;;;;;;;0.10;0.10;;;;;;;;;;5028287;28;20025;-73
2023/01/15 09:22:43;;;;;;;0.10;0.10;;;;;;;;;;5033956;28;20059;-77
2023/01/15 09:25:08;;;;;;;0.20;0.20;;;;;;;;;;5035657;28;20284;-77
2023/01/15 09:27:33;;;;;;;0.20;0.20;;;;;;;;;;5032847;28;20083;-75
2023/01/15 09:29:59;;;;;;;0.17;0.17;;;;;;;;;;5032253;28;20025;-75
2023/01/15 09:32:24;;;;;;;0.10;0.10;;;;;;;;;;5029923;28;20025;-74
2023/01/15 09:34:49;;;;;;;0.20;0.20;;;;;;;;;;5031113;28;20029;-74
2023/01/15 09:37:15;;;;;;;0.20;0.20;;;;;;;;;;5035388;28;21053;-74
2023/01/15 09:39:40;;;;;;;0.20;0.20;;;;;;;;;;5034801;28;20460;-76
2023/01/15 09:42:22;;;;;;;0.20;0.20;;;;;;;;;;5030609;28;20032;-75
2023/01/15 09:45:14;;;;;;;0.20;0.20;;;;;;;;;;5034322;28;20043;-76
2023/01/15 09:47:43;;;;;;;0.20;0.20;;;;;;;;;;5034071;28;20033;-73
2023/01/15 09:50:17;;;;;;;0.13;0.13;;;;;;;;;;5040684;28;20128;-73
2023/01/15 09:52:42;;;;;;;0.20;0.20;;;;;;;;;;5030140;28;20357;-75
2023/01/15 09:55:13;;;;;;;0.30;0.30;;;;;;;;;;5032471;28;20570;-76
2023/01/15 09:57:39;;;;;;;0.20;0.20;;;;;;;;;;5032406;28;20482;-74
2023/01/15 10:00:05;;;;;;;0.30;0.30;;;;;;;;;;5034488;28;20108;-74
2023/01/15 10:02:33;;;;;;;0.20;0.20;;;;;;;;;;5031966;28;20029;-74
2023/01/15 10:05:01;;;;;;;0.20;0.20;;;;;;;;;;5033940;28;20399;-74
2023/01/15 10:07:33;;;;;;;0.20;0.20;;;;;;;;;;5037935;28;20113;-73
2023/01/15 10:10:01;;;;;;;0.20;0.20;;;;;;;;;;5043103;28;20115;-73
2023/01/15 10:12:34;;;;;;;0.10;0.10;;;;;;;;;;5037049;28;20013;-73
2023/01/15 10:15:05;;;;;;;0.20;0.20;;;;;;;;;;5042568;28;20033;-73
2023/01/15 10:17:40;;;;;;;0.10;0.10;;;;;;;;;;5041365;28;20641;-76
2023/01/15 10:20:11;;;;;;;0.20;0.20;;;;;;;;;;5034896;28;20471;-76
2023/01/15 10:22:56;;;;;;;0.10;0.10;;;;;;;;;;5033566;28;20410;-72
2023/01/15 10:25:23;;;;;;;0.20;0.20;;;;;;;;;;5036355;28;20384;-74
2023/01/15 10:27:50;;;;;;;0.20;0.20;;;;;;;;;;5036619;28;20025;-74
2023/01/15 10:30:16;;;;;;;0.20;0.20;;;;;;;;;;5033069;28;20029;-74
2023/01/15 10:32:49;;;;;;;0.20;0.20;;;;;;;;;;5035030;28;20703;-72
2023/01/15 10:35:18;;;;;;;0.20;0.20;;;;;;;;;;5027745;28;20024;-78
2023/01/15 10:38:00;;;;;;;0.20;0.20;;;;;;;;;;5038290;28;20055;-72
2023/01/15 10:40:32;;;;;;;0.20;0.20;;;;;;;;;;5044710;28;20490;-75
2023/01/15 10:43:05;;;;;;;0.15;0.15;;;;;;;;;;5039424;28;20473;-74
2023/01/15 10:45:35;;;;;;;0.20;0.20;;;;;;;;;;5042002;28;20060;-73
2023/01/15 10:48:04;;;;;;;0.20;0.20;;;;;;;;;;5041480;28;20035;-73
2023/01/15 10:50:31;;;;;;;0.32;0.32;;;;;;;;;;5032852;28;20072;-75
2023/01/15 10:53:13;;;;;;;0.20;0.20;;;;;;;;;;5034335;28;20021;-73
2023/01/15 10:55:43;;;;;;;0.20;0.20;;;;;;;;;;5030918;28;20021;-76
2023/01/15 10:58:32;;;;;;;0.20;0.20;;;;;;;;;;5036220;28;20021;-75
2023/01/15 11:01:01;;;;;;;0.13;0.13;;;;;;;;;;5036727;28;20029;-76
2023/01/15 11:03:37;;;;;;;0.20;0.20;;;;;;;;;;5035722;28;20898;-75
2023/01/15 11:06:03;;;;;;;0.10;0.10;;;;;;;;;;5032729;28;20029;-75
2023/01/15 11:08:32;;;;;;;0.20;0.20;;;;;;;;;;5034652;28;20063;-76
2023/01/15 11:11:02;;;;;;;0.20;0.20;;;;;;;;;;5046491;28;20739;-78
2023/01/15 11:21:49;;;;;;;0.10;0.10;;;;;;;;;;5037110;28;20032;-74
2023/01/15 11:24:15;;;;;;;0.10;0.10;;;;;;;;;;5034012;28;20475;-76
2023/01/15 11:26:44;;;;;;;0.10;0.10;;;;;;;;;;5024791;28;20045;-76
2023/01/15 11:29:14;;;;;;;0.10;0.10;;;;;;;;;;5027217;28;20053;-75
2023/01/15 11:31:40;;;;;;;0.10;0.10;;;;;;;;;;5025825;28;20021;-74
2023/01/15 11:34:06;;;;;;;0.10;0.10;;;;;;;;;;5026700;28;20033;-76
2023/01/15 11:36:32;;;;;;;0.20;0.20;;;;;;;;;;5023401;28;20025;-76
2023/01/15 11:38:57;;;;;;;0.10;0.10;;;;;;;;;;5031672;28;20029;-76
2023/01/15 11:50:42;;;;;;;0.15;0.15;;;;;;;;;;5027884;28;21585;-75
2023/01/15 11:52:32;;;;;;;0.10;0.10;;;;;;;;;;5035658;28;20032;-77
2023/01/15 11:54:57;;;;;;;0.20;0.20;;;;;;;;;;5034330;28;20387;-74
2023/01/15 11:57:31;;;;;;;0.20;0.20;;;;;;;;;;5031467;28;20166;-75
2023/01/15 11:59:56;;;;;;;0.20;0.20;;;;;;;;;;5036096;28;20029;-75
2023/01/15 12:02:33;;;;;;;0.10;0.10;;;;;;;;;;5031702;28;20060;-76
2023/01/15 12:04:59;;;;;;;0.10;0.10;;;;;;;;;;5035094;28;20017;-73
2023/01/15 12:07:25;;;;;;;0.20;0.20;;;;;;;;;;5034688;28;20033;-75
2023/01/15 12:10:13;;;;;;;0.20;0.20;;;;;;;;;;5030342;28;20131;-74
2023/01/15 12:12:46;;;;;;;0.10;0.10;;;;;;;;;;5028301;28;20025;-75
2023/01/15 12:15:20;;;;;;;0.20;0.20;;;;;;;;;;5034571;28;20021;-74
2023/01/15 12:18:04;;;;;;;0.20;0.20;;;;;;;;;;5029323;28;20029;-75
2023/01/15 12:20:32;;;;;;;0.20;0.20;;;;;;;;;;5027757;28;20028;-76
2023/01/15 12:23:03;;;;;;;0.10;0.10;;;;;;;;;;5031843;28;20044;-76
2023/01/15 12:25:33;;;;;;;0.10;0.10;;;;;;;;;;5033639;28;20024;-78
2023/01/15 12:27:58;;;;;;;0.10;0.10;;;;;;;;;;5036268;28;20055;-77
2023/01/15 12:30:23;;;;;;;0.10;0.10;;;;;;;;;;5030167;28;20009;-75
2023/01/15 12:32:54;;;;;;;0.20;0.20;;;;;;;;;;5032804;28;20277;-75
2023/01/15 12:35:29;;;;;;;0.20;0.20;;;;;;;;;;5036002;28;20312;-76
2023/01/15 12:38:14;;;;;;;0.10;0.10;;;;;;;;;;5034092;28;20403;-75
2023/01/15 12:40:44;;;;;;;0.20;0.20;;;;;;;;;;5026985;28;20340;-75
2023/01/15 12:46:05;;;;;;;0.10;0.10;;;;;;;;;;5035330;28;20039;-76
2023/01/15 12:48:35;;;;;;;0.20;0.20;;;;;;;;;;5032639;28;20028;-74
2023/01/15 12:51:03;;;;;;;0.10;0.10;;;;;;;;;;5032088;28;20029;-74
2023/01/15 12:53:34;;;;;;;0.10;0.10;;;;;;;;;;5030747;28;20017;-75
2023/01/15 12:56:09;;;;;;;0.10;0.10;;;;;;;;;;5035966;28;20029;-74
2023/01/15 12:58:34;;;;;;;;;;;;;;;;;;5030195;28;20024;-77
2023/01/15 13:01:12;;;;;;;0.20;0.20;;;;;;;;;;5030458;28;20334;-73
2023/01/15 13:03:50;;;;;;;0.10;0.10;;;;;;;;;;5031398;28;20523;-74
2023/01/15 13:06:15;;;;;;;0.10;0.10;;;;;;;;;;5033808;28;20457;-75
2023/01/15 13:08:41;;;;;;;0.10;0.10;;;;;;;;;;5031006;28;20135;-75
2023/01/15 13:11:08;;;;;;;0.20;0.20;;;;;;;;;;5035766;28;20025;-74
2023/01/15 13:13:36;;;;;;;0.10;0.10;;;;;;;;;;5037419;28;20277;-74
2023/01/15 13:16:11;;;;;;;0.10;0.10;;;;;;;;;;5042097;28;20029;-75
2023/01/15 13:18:43;;;;;;;0.10;0.10;;;;;;;;;;5036763;28;20025;-75
2023/01/15 13:21:16;;;;;;;0.20;0.20;;;;;;;;;;5035054;28;20070;-73
2023/01/15 13:23:55;;;;;;;0.20;0.20;;;;;;;;;;5032381;28;20033;-73
2023/01/15 13:26:30;;;;;;;0.10;0.10;;;;;;;;;;5027755;28;20025;-74
2023/01/15 13:29:18;;;;;;;0.10;0.10;;;;;;;;;;5029037;28;20021;-74
2023/01/15 13:31:59;;;;;;;0.10;0.10;;;;;;;;;;5018355;28;20379;-75
2023/01/15 13:34:33;;;;;;;0.10;0.10;;;;;;;;;;5028571;28;20025;-75
2023/01/15 13:36:58;;;;;;;;;;;;;;;;;;5032338;28;20112;-74
2023/01/15 13:39:26;;;;;;;0.10;0.10;;;;;;;;;;5031764;28;19919;-75
2023/01/15 13:44:38;;;;;;;0.10;0.10;;;;;;;;;;5026703;28;20475;-76
2023/01/15 13:47:12;;;;;;;0.10;0.10;;;;;;;;;;5033112;28;20020;-75
2023/01/15 13:49:52;;;;;;;0.10;0.10;;;;;;;;;;5029844;28;20068;-75
2023/01/15 13:52:26;;;;;;;0.20;0.20;;;;;;;;;;5025597;28;20032;-75
2023/01/15 13:54:53;;;;;;;0.10;0.10;;;;;;;;;;5025120;28;20572;-76
2023/01/15 13:57:23;;;;;;;0.10;0.10;;;;;;;;;;5022480;28;20029;-74
2023/01/15 13:59:49;;;;;;;0.10;0.10;;;;;;;;;;5022624;28;20027;-74
2023/01/15 14:02:25;;;;;;;0.20;0.20;;;;;;;;;;5022222;28;20017;-74
2023/01/15 14:04:50;;;;;;;0.10;0.10;;;;;;;;;;5029078;28;20044;-76
2023/01/15 14:07:22;;;;;;;0.20;0.20;;;;;;;;;;5028281;28;20421;-74
2023/01/15 14:09:47;;;;;;;0.10;0.10;;;;;;;;;;5028645;28;20020;-74
2023/01/15 14:12:27;;;;;;;0.10;0.10;;;;;;;;;;5031862;28;20364;-74
2023/01/15 14:14:52;;;;;;;0.20;0.20;;;;;;;;;;5031733;28;20364;-74
2023/01/15 14:17:26;;;;;;;0.20;0.20;;;;;;;;;;5028429;28;20031;-75
2023/01/15 14:20:01;;;;;;;0.10;0.10;;;;;;;;;;5026724;28;20273;-74
2023/01/15 14:22:46;;;;;;;0.10;0.10;;;;;;;;;;5032466;28;20061;-73
2023/01/15 14:25:17;;;;;;;0.10;0.10;;;;;;;;;;5031744;28;20029;-73
2023/01/15 14:27:58;;;;;;;0.20;0.20;;;;;;;;;;5028469;28;20445;-74
2023/01/15 14:30:46;;;;;;;0.20;0.20;;;;;;;;;;5035610;28;20027;-74
2023/01/15 14:33:22;;;;;;;0.15;0.15;;;;;;;;;;5034202;28;20440;-74
2023/01/15 14:35:47;;;;;;;0.13;0.13;;;;;;;;;;5043663;28;20118;-73
2023/01/15 14:38:16;;;;;;;0.20;0.20;;;;;;;;;;5041092;28;20064;-73
2023/01/15 14:40:51;;;;;;;0.20;0.20;;;;;;;;;;5033948;28;20070;-74
2023/01/15 14:43:18;;;;;;;0.20;0.20;;;;;;;;;;5025754;28;20030;-73
2023/01/15 14:45:45;;;;;;;0.20;0.20;;;;;;;;;;5029938;28;20029;-73
2023/01/15 14:48:16;;;;;;;0.10;0.10;;;;;;;;;;5028330;28;20113;-74
2023/01/15 14:50:42;;;;;;;0.20;0.20;;;;;;;;;;5025642;28;20443;-75
2023/01/15 14:53:10;;;;;;;0.10;0.10;;;;;;;;;;5031285;28;20049;-75
2023/01/15 14:55:54;;;;;;;0.20;0.20;;;;;;;;;;5035108;28;20029;-74
2023/01/15 14:58:39;;;;;;;0.10;0.10;;;;;;;;;;5035858;28;20484;-75
2023/01/15 15:01:19;;;;;;;0.20;0.20;;;;;;;;;;5032714;28;20427;-73
2023/01/15 15:03:51;;;;;;;0.10;0.10;;;;;;;;;;5035112;28;20033;-75
2023/01/15 15:06:16;;;;;;;0.10;0.10;;;;;;;;;;5038310;28;20447;-75
2023/01/15 15:08:43;;;;;;;0.20;0.20;;;;;;;;;;5040084;28;20028;-76
2023/01/15 15:12:17;;;;;;;0.20;0.20;;;;;;;;;;5037635;28;20029;-76
2023/01/15 15:14:00;;;;;;;0.15;0.15;;;;;;;;;;5034945;28;20539;-76
2023/01/15 15:16:27;;;;;;;0.17;0.17;;;;;;;;;;5035661;28;20373;-77
2023/01/15 15:19:10;;;;;;;0.20;0.20;;;;;;;;;;5040445;28;20030;-76
2023/01/15 15:21:37;;;;;;;0.20;0.20;;;;;;;;;;5036416;28;20034;-75
2023/01/15 15:24:21;;;;;;;0.20;0.20;;;;;;;;;;5042202;28;20025;-74
2023/01/15 15:26:46;;;;;;;0.20;0.20;;;;;;;;;;5038179;28;20104;-75
2023/01/15 15:29:13;;;;;;;0.10;0.10;;;;;;;;;;5040452;28;20108;-75
2023/01/15 15:31:39;;;;;;;0.17;0.17;;;;;;;;;;5040238;28;20159;-75
2023/01/15 15:34:05;;;;;;;0.20;0.20;;;;;;;;;;5035270;28;20061;-74
2023/01/15 15:36:32;;;;;;;0.20;0.20;;;;;;;;;;5045382;28;20371;-74
2023/01/15 15:39:01;;;;;;;0.20;0.20;;;;;;;;;;5048184;28;20055;-74
2023/01/15 15:50:02;;;;;;;0.10;0.10;;;;;;;;;;5041915;28;20031;-75